PROFILE

 METAR AND TAF INFORMATION
ADDS - METARS form results

(1025 UTC 15 May 2021)
http://aviationweather.gov/metar/data/
 
LFRT 151000Z AUTO 25013KT 9999 SCT031/// SCT038/// BKN046/// ///TCU 15/08 Q1003
LFRT 150930Z AUTO 24011KT 9999 FEW032 BKN041 BKN052 14/08 Q1003

 AIRPORT MAP

 RUNWAY INFORMATION
Runway 06 Runway length 7218 ft Runway width 148 ft
Runway elevation 450 ft Runway displaced threshold 0 ft Runway heading 59
Runway 24 Runway length 7218 ft Runway width 148 ft
Runway elevation 431 ft Runway displaced threshold 0 ft Runway heading 239

 AIRPORT FREQUENCIES
Type AFIS Name INFO Frequency 119.4 MHZ

 AIRPORT NEAR NAVIGATION AIDS